sensor_id;sensor_type;location;lat;lon;timestamp;P1;durP1;ratioP1;P2;durP2;ratioP2
40072;SDS011;25774;52.256;9.356;2023-02-22T00:00:58;54.72;;;17.60;;
40072;SDS011;25774;52.256;9.356;2023-02-22T00:03:29;54.10;;;18.80;;
40072;SDS011;25774;52.256;9.356;2023-02-22T00:05:59;49.50;;;16.33;;
40072;SDS011;25774;52.256;9.356;2023-02-22T00:08:31;52.83;;;17.67;;
40072;SDS011;25774;52.256;9.356;2023-02-22T00:10:58;49.00;;;16.27;;
40072;SDS011;25774;52.256;9.356;2023-02-22T00:13:25;54.78;;;17.48;;
40072;SDS011;25774;52.256;9.356;2023-02-22T00:15:53;50.85;;;17.48;;
40072;SDS011;25774;52.256;9.356;2023-02-22T00:20:45;47.42;;;14.75;;
40072;SDS011;25774;52.256;9.356;2023-02-22T00:23:21;53.67;;;16.70;;
40072;SDS011;25774;52.256;9.356;2023-02-22T00:25:48;34.13;;;10.90;;
40072;SDS011;25774;52.256;9.356;2023-02-22T00:28:16;45.25;;;15.85;;
40072;SDS011;25774;52.256;9.356;2023-02-22T00:30:43;50.08;;;16.90;;
40072;SDS011;25774;52.256;9.356;2023-02-22T00:33:13;51.85;;;16.27;;
40072;SDS011;25774;52.256;9.356;2023-02-22T00:35:39;45.35;;;14.70;;
40072;SDS011;25774;52.256;9.356;2023-02-22T00:38:10;53.10;;;16.23;;
40072;SDS011;25774;52.256;9.356;2023-02-22T00:40:36;54.58;;;16.10;;
40072;SDS011;25774;52.256;9.356;2023-02-22T00:43:03;47.85;;;15.07;;
40072;SDS011;25774;52.256;9.356;2023-02-22T00:45:30;47.85;;;16.52;;
40072;SDS011;25774;52.256;9.356;2023-02-22T00:47:57;57.47;;;17.98;;
40072;SDS011;25774;52.256;9.356;2023-02-22T00:50:24;51.17;;;16.10;;
40072;SDS011;25774;52.256;9.356;2023-02-22T00:52:52;49.85;;;15.75;;
40072;SDS011;25774;52.256;9.356;2023-02-22T00:55:21;53.95;;;16.38;;
40072;SDS011;25774;52.256;9.356;2023-02-22T00:57:55;50.83;;;15.85;;
40072;SDS011;25774;52.256;9.356;2023-02-22T01:00:22;48.40;;;16.80;;
40072;SDS011;25774;52.256;9.356;2023-02-22T01:02:59;50.25;;;16.70;;
40072;SDS011;25774;52.256;9.356;2023-02-22T01:05:25;47.72;;;16.75;;
40072;SDS011;25774;52.256;9.356;2023-02-22T01:07:53;43.33;;;15.70;;
40072;SDS011;25774;52.256;9.356;2023-02-22T01:10:20;48.60;;;16.83;;
40072;SDS011;25774;52.256;9.356;2023-02-22T01:12:48;44.80;;;15.73;;
40072;SDS011;25774;52.256;9.356;2023-02-22T01:15:15;48.80;;;17.42;;
40072;SDS011;25774;52.256;9.356;2023-02-22T01:17:46;48.53;;;15.73;;
40072;SDS011;25774;52.256;9.356;2023-02-22T01:20:12;42.15;;;13.70;;
40072;SDS011;25774;52.256;9.356;2023-02-22T01:22:41;47.50;;;14.87;;
40072;SDS011;25774;52.256;9.356;2023-02-22T01:25:08;47.40;;;14.95;;
40072;SDS011;25774;52.256;9.356;2023-02-22T01:27:35;46.60;;;16.02;;
40072;SDS011;25774;52.256;9.356;2023-02-22T01:30:01;47.37;;;15.53;;
40072;SDS011;25774;52.256;9.356;2023-02-22T01:32:35;47.35;;;16.05;;
40072;SDS011;25774;52.256;9.356;2023-02-22T01:35:02;42.65;;;14.95;;
40072;SDS011;25774;52.256;9.356;2023-02-22T01:37:29;46.85;;;15.40;;
40072;SDS011;25774;52.256;9.356;2023-02-22T01:39:56;42.97;;;16.33;;
40072;SDS011;25774;52.256;9.356;2023-02-22T01:42:21;43.83;;;15.27;;
40072;SDS011;25774;52.256;9.356;2023-02-22T01:45:37;46.10;;;15.52;;
40072;SDS011;25774;52.256;9.356;2023-02-22T01:47:52;49.75;;;14.45;;
40072;SDS011;25774;52.256;9.356;2023-02-22T01:50:19;49.38;;;15.65;;
40072;SDS011;25774;52.256;9.356;2023-02-22T01:52:45;45.10;;;15.23;;
40072;SDS011;25774;52.256;9.356;2023-02-22T01:55:11;44.07;;;14.20;;
40072;SDS011;25774;52.256;9.356;2023-02-22T01:57:36;47.73;;;14.97;;
40072;SDS011;25774;52.256;9.356;2023-02-22T02:00:08;44.47;;;15.57;;
40072;SDS011;25774;52.256;9.356;2023-02-22T02:02:38;47.58;;;14.45;;
40072;SDS011;25774;52.256;9.356;2023-02-22T02:05:08;47.55;;;14.05;;
40072;SDS011;25774;52.256;9.356;2023-02-22T02:07:35;39.97;;;15.02;;
40072;SDS011;25774;52.256;9.356;2023-02-22T02:10:07;36.15;;;12.73;;
40072;SDS011;25774;52.256;9.356;2023-02-22T02:12:38;37.75;;;13.32;;
40072;SDS011;25774;52.256;9.356;2023-02-22T02:17:50;46.40;;;13.82;;
40072;SDS011;25774;52.256;9.356;2023-02-22T02:20:27;35.38;;;12.45;;
40072;SDS011;25774;52.256;9.356;2023-02-22T02:23:07;41.30;;;14.10;;
40072;SDS011;25774;52.256;9.356;2023-02-22T02:37:10;40.47;;;13.43;;
40072;SDS011;25774;52.256;9.356;2023-02-22T02:42:13;43.90;;;14.65;;
40072;SDS011;25774;52.256;9.356;2023-02-22T02:44:45;40.30;;;14.65;;
40072;SDS011;25774;52.256;9.356;2023-02-22T02:47:19;46.95;;;14.07;;
40072;SDS011;25774;52.256;9.356;2023-02-22T02:49:52;43.40;;;14.05;;
40072;SDS011;25774;52.256;9.356;2023-02-22T02:52:22;51.20;;;16.25;;
40072;SDS011;25774;52.256;9.356;2023-02-22T02:54:50;46.38;;;14.45;;
40072;SDS011;25774;52.256;9.356;2023-02-22T02:57:16;47.10;;;13.55;;
40072;SDS011;25774;52.256;9.356;2023-02-22T02:59:41;41.00;;;13.50;;
40072;SDS011;25774;52.256;9.356;2023-02-22T03:02:16;36.63;;;13.25;;
40072;SDS011;25774;52.256;9.356;2023-02-22T03:08:00;33.22;;;10.93;;
40072;SDS011;25774;52.256;9.356;2023-02-22T03:10:42;37.05;;;10.85;;
40072;SDS011;25774;52.256;9.356;2023-02-22T03:16:23;38.42;;;13.38;;
40072;SDS011;25774;52.256;9.356;2023-02-22T03:18:55;33.42;;;10.10;;
40072;SDS011;25774;52.256;9.356;2023-02-22T03:24:08;32.70;;;9.90;;
40072;SDS011;25774;52.256;9.356;2023-02-22T03:26:41;31.00;;;10.43;;
40072;SDS011;25774;52.256;9.356;2023-02-22T03:29:10;28.25;;;9.70;;
40072;SDS011;25774;52.256;9.356;2023-02-22T03:31:41;30.95;;;9.02;;
40072;SDS011;25774;52.256;9.356;2023-02-22T03:34:14;32.25;;;9.85;;
40072;SDS011;25774;52.256;9.356;2023-02-22T03:36:46;32.72;;;11.40;;
40072;SDS011;25774;52.256;9.356;2023-02-22T03:39:15;27.15;;;8.75;;
40072;SDS011;25774;52.256;9.356;2023-02-22T03:41:44;28.27;;;8.50;;
40072;SDS011;25774;52.256;9.356;2023-02-22T03:44:17;30.48;;;9.95;;
40072;SDS011;25774;52.256;9.356;2023-02-22T03:46:48;31.55;;;8.02;;
40072;SDS011;25774;52.256;9.356;2023-02-22T03:49:34;26.25;;;8.60;;
40072;SDS011;25774;52.256;9.356;2023-02-22T03:52:02;28.08;;;8.38;;
40072;SDS011;25774;52.256;9.356;2023-02-22T03:54:29;28.70;;;8.70;;
40072;SDS011;25774;52.256;9.356;2023-02-22T03:57:01;27.63;;;9.00;;
40072;SDS011;25774;52.256;9.356;2023-02-22T03:59:32;18.00;;;5.55;;
40072;SDS011;25774;52.256;9.356;2023-02-22T04:01:58;21.70;;;7.13;;
40072;SDS011;25774;52.256;9.356;2023-02-22T04:04:23;16.20;;;5.83;;
40072;SDS011;25774;52.256;9.356;2023-02-22T04:06:49;21.50;;;6.57;;
40072;SDS011;25774;52.256;9.356;2023-02-22T04:11:42;21.77;;;7.00;;
40072;SDS011;25774;52.256;9.356;2023-02-22T04:14:09;25.80;;;8.05;;
40072;SDS011;25774;52.256;9.356;2023-02-22T04:16:34;24.60;;;6.93;;
40072;SDS011;25774;52.256;9.356;2023-02-22T04:19:00;24.03;;;7.17;;
40072;SDS011;25774;52.256;9.356;2023-02-22T04:21:25;21.30;;;7.27;;
40072;SDS011;25774;52.256;9.356;2023-02-22T04:23:50;26.10;;;7.27;;
40072;SDS011;25774;52.256;9.356;2023-02-22T04:26:16;19.00;;;7.20;;
40072;SDS011;25774;52.256;9.356;2023-02-22T04:28:41;17.97;;;7.10;;
40072;SDS011;25774;52.256;9.356;2023-02-22T04:31:06;22.30;;;7.40;;
40072;SDS011;25774;52.256;9.356;2023-02-22T04:33:32;19.37;;;6.40;;
40072;SDS011;25774;52.256;9.356;2023-02-22T04:35:57;19.20;;;6.47;;
40072;SDS011;25774;52.256;9.356;2023-02-22T04:38:23;22.13;;;8.07;;
40072;SDS011;25774;52.256;9.356;2023-02-22T04:40:52;18.42;;;6.65;;
40072;SDS011;25774;52.256;9.356;2023-02-22T04:43:20;18.25;;;7.53;;
40072;SDS011;25774;52.256;9.356;2023-02-22T04:45:46;25.17;;;7.20;;
40072;SDS011;25774;52.256;9.356;2023-02-22T04:48:11;22.37;;;6.83;;
40072;SDS011;25774;52.256;9.356;2023-02-22T04:50:37;26.10;;;7.53;;
40072;SDS011;25774;52.256;9.356;2023-02-22T04:53:03;21.17;;;7.22;;
40072;SDS011;25774;52.256;9.356;2023-02-22T04:55:28;19.03;;;6.83;;
40072;SDS011;25774;52.256;9.356;2023-02-22T04:57:54;19.50;;;6.87;;
40072;SDS011;25774;52.256;9.356;2023-02-22T05:00:20;17.38;;;6.60;;
40072;SDS011;25774;52.256;9.356;2023-02-22T05:02:46;20.13;;;7.23;;
40072;SDS011;25774;52.256;9.356;2023-02-22T05:05:13;26.00;;;7.00;;
40072;SDS011;25774;52.256;9.356;2023-02-22T05:07:40;28.33;;;7.45;;
40072;SDS011;25774;52.256;9.356;2023-02-22T05:10:05;19.48;;;6.63;;
40072;SDS011;25774;52.256;9.356;2023-02-22T05:12:31;19.23;;;6.97;;
40072;SDS011;25774;52.256;9.356;2023-02-22T05:14:56;20.07;;;7.43;;
40072;SDS011;25774;52.256;9.356;2023-02-22T05:17:21;20.80;;;6.53;;
40072;SDS011;25774;52.256;9.356;2023-02-22T05:19:47;18.93;;;6.67;;
40072;SDS011;25774;52.256;9.356;2023-02-22T05:22:12;18.60;;;6.17;;
40072;SDS011;25774;52.256;9.356;2023-02-22T05:24:37;20.70;;;7.67;;
40072;SDS011;25774;52.256;9.356;2023-02-22T05:27:03;19.27;;;7.10;;
40072;SDS011;25774;52.256;9.356;2023-02-22T05:29:28;22.80;;;7.07;;
40072;SDS011;25774;52.256;9.356;2023-02-22T05:31:53;21.10;;;6.93;;
40072;SDS011;25774;52.256;9.356;2023-02-22T05:34:19;24.27;;;8.00;;
40072;SDS011;25774;52.256;9.356;2023-02-22T05:36:44;23.90;;;8.37;;
40072;SDS011;25774;52.256;9.356;2023-02-22T05:39:10;20.58;;;7.30;;
40072;SDS011;25774;52.256;9.356;2023-02-22T05:41:36;24.25;;;8.43;;
40072;SDS011;25774;52.256;9.356;2023-02-22T05:44:01;26.17;;;8.57;;
40072;SDS011;25774;52.256;9.356;2023-02-22T05:46:27;22.10;;;7.10;;
40072;SDS011;25774;52.256;9.356;2023-02-22T05:48:52;28.93;;;8.23;;
40072;SDS011;25774;52.256;9.356;2023-02-22T05:51:17;22.57;;;8.80;;
40072;SDS011;25774;52.256;9.356;2023-02-22T05:53:43;28.30;;;9.70;;
40072;SDS011;25774;52.256;9.356;2023-02-22T05:56:09;29.63;;;7.67;;
40072;SDS011;25774;52.256;9.356;2023-02-22T05:58:35;26.03;;;9.13;;
40072;SDS011;25774;52.256;9.356;2023-02-22T06:01:00;22.15;;;7.20;;
40072;SDS011;25774;52.256;9.356;2023-02-22T06:03:26;24.73;;;8.97;;
40072;SDS011;25774;52.256;9.356;2023-02-22T06:05:51;25.70;;;9.33;;
40072;SDS011;25774;52.256;9.356;2023-02-22T06:08:16;25.37;;;8.73;;
40072;SDS011;25774;52.256;9.356;2023-02-22T06:10:43;29.00;;;8.93;;
40072;SDS011;25774;52.256;9.356;2023-02-22T06:13:08;28.92;;;8.75;;
40072;SDS011;25774;52.256;9.356;2023-02-22T06:15:34;25.80;;;8.60;;
40072;SDS011;25774;52.256;9.356;2023-02-22T06:17:59;26.00;;;9.23;;
40072;SDS011;25774;52.256;9.356;2023-02-22T06:20:27;29.88;;;9.45;;
40072;SDS011;25774;52.256;9.356;2023-02-22T06:22:54;24.05;;;8.50;;
40072;SDS011;25774;52.256;9.356;2023-02-22T06:25:22;30.52;;;9.63;;
40072;SDS011;25774;52.256;9.356;2023-02-22T06:27:49;29.60;;;10.43;;
40072;SDS011;25774;52.256;9.356;2023-02-22T06:30:15;28.85;;;10.57;;
40072;SDS011;25774;52.256;9.356;2023-02-22T06:32:45;29.45;;;9.88;;
40072;SDS011;25774;52.256;9.356;2023-02-22T06:35:13;37.97;;;13.02;;
40072;SDS011;25774;52.256;9.356;2023-02-22T06:37:39;29.40;;;10.77;;
40072;SDS011;25774;52.256;9.356;2023-02-22T06:40:04;33.67;;;11.47;;
40072;SDS011;25774;52.256;9.356;2023-02-22T06:42:30;34.22;;;12.13;;
40072;SDS011;25774;52.256;9.356;2023-02-22T06:44:55;40.93;;;12.73;;
40072;SDS011;25774;52.256;9.356;2023-02-22T06:47:20;33.83;;;13.07;;
40072;SDS011;25774;52.256;9.356;2023-02-22T06:49:51;35.55;;;11.68;;
40072;SDS011;25774;52.256;9.356;2023-02-22T06:52:17;36.00;;;12.45;;
40072;SDS011;25774;52.256;9.356;2023-02-22T06:54:43;33.63;;;12.90;;
40072;SDS011;25774;52.256;9.356;2023-02-22T06:57:08;31.17;;;11.33;;
40072;SDS011;25774;52.256;9.356;2023-02-22T06:59:34;39.30;;;13.63;;
40072;SDS011;25774;52.256;9.356;2023-02-22T07:01:59;36.17;;;13.30;;
40072;SDS011;25774;52.256;9.356;2023-02-22T07:04:24;34.47;;;14.00;;
40072;SDS011;25774;52.256;9.356;2023-02-22T07:06:50;38.53;;;13.23;;
40072;SDS011;25774;52.256;9.356;2023-02-22T07:09:16;38.85;;;12.55;;
40072;SDS011;25774;52.256;9.356;2023-02-22T07:14:07;33.60;;;11.87;;
40072;SDS011;25774;52.256;9.356;2023-02-22T07:16:33;37.30;;;12.67;;
40072;SDS011;25774;52.256;9.356;2023-02-22T07:18:58;37.57;;;12.87;;
40072;SDS011;25774;52.256;9.356;2023-02-22T07:21:28;38.22;;;13.70;;
40072;SDS011;25774;52.256;9.356;2023-02-22T07:23:56;37.50;;;13.55;;
40072;SDS011;25774;52.256;9.356;2023-02-22T07:26:23;39.35;;;14.75;;
40072;SDS011;25774;52.256;9.356;2023-02-22T07:28:49;32.47;;;12.90;;
40072;SDS011;25774;52.256;9.356;2023-02-22T07:31:15;36.80;;;13.47;;
40072;SDS011;25774;52.256;9.356;2023-02-22T07:33:40;38.83;;;13.52;;
40072;SDS011;25774;52.256;9.356;2023-02-22T07:36:06;39.87;;;13.53;;
40072;SDS011;25774;52.256;9.356;2023-02-22T07:38:32;34.03;;;13.32;;
40072;SDS011;25774;52.256;9.356;2023-02-22T07:40:58;44.40;;;15.53;;
40072;SDS011;25774;52.256;9.356;2023-02-22T07:43:24;41.08;;;14.23;;
40072;SDS011;25774;52.256;9.356;2023-02-22T07:45:54;41.08;;;14.25;;
40072;SDS011;25774;52.256;9.356;2023-02-22T07:48:21;38.85;;;13.93;;
40072;SDS011;25774;52.256;9.356;2023-02-22T07:50:48;40.65;;;15.95;;
40072;SDS011;25774;52.256;9.356;2023-02-22T07:53:18;37.08;;;15.52;;
40072;SDS011;25774;52.256;9.356;2023-02-22T07:55:45;38.72;;;14.65;;
40072;SDS011;25774;52.256;9.356;2023-02-22T07:58:13;45.87;;;14.63;;
40072;SDS011;25774;52.256;9.356;2023-02-22T08:00:40;42.13;;;16.20;;
40072;SDS011;25774;52.256;9.356;2023-02-22T08:03:07;39.65;;;14.23;;
40072;SDS011;25774;52.256;9.356;2023-02-22T08:05:34;39.58;;;15.05;;
40072;SDS011;25774;52.256;9.356;2023-02-22T08:08:01;41.28;;;15.30;;
40072;SDS011;25774;52.256;9.356;2023-02-22T08:10:27;38.08;;;15.35;;
40072;SDS011;25774;52.256;9.356;2023-02-22T08:12:54;39.50;;;15.23;;
40072;SDS011;25774;52.256;9.356;2023-02-22T08:17:50;37.38;;;15.60;;
40072;SDS011;25774;52.256;9.356;2023-02-22T08:20:17;39.67;;;16.13;;
40072;SDS011;25774;52.256;9.356;2023-02-22T08:22:43;46.03;;;16.33;;
40072;SDS011;25774;52.256;9.356;2023-02-22T08:25:09;40.80;;;15.38;;
40072;SDS011;25774;52.256;9.356;2023-02-22T08:27:35;36.03;;;14.65;;
40072;SDS011;25774;52.256;9.356;2023-02-22T08:30:00;36.10;;;16.13;;
40072;SDS011;25774;52.256;9.356;2023-02-22T08:32:25;37.90;;;15.30;;
40072;SDS011;25774;52.256;9.356;2023-02-22T08:34:52;36.27;;;15.87;;
40072;SDS011;25774;52.256;9.356;2023-02-22T08:39:44;34.67;;;15.25;;
40072;SDS011;25774;52.256;9.356;2023-02-22T08:42:09;40.17;;;16.13;;
40072;SDS011;25774;52.256;9.356;2023-02-22T08:44:38;41.85;;;16.15;;
40072;SDS011;25774;52.256;9.356;2023-02-22T08:47:04;36.08;;;15.32;;
40072;SDS011;25774;52.256;9.356;2023-02-22T08:51:55;39.63;;;15.27;;
40072;SDS011;25774;52.256;9.356;2023-02-22T08:54:21;39.93;;;16.37;;
40072;SDS011;25774;52.256;9.356;2023-02-22T08:56:46;38.47;;;16.50;;
40072;SDS011;25774;52.256;9.356;2023-02-22T08:59:12;36.75;;;16.23;;
40072;SDS011;25774;52.256;9.356;2023-02-22T09:01:38;41.97;;;16.27;;
40072;SDS011;25774;52.256;9.356;2023-02-22T09:04:03;41.10;;;16.93;;
40072;SDS011;25774;52.256;9.356;2023-02-22T09:06:28;36.00;;;15.37;;
40072;SDS011;25774;52.256;9.356;2023-02-22T09:08:54;30.87;;;15.23;;
40072;SDS011;25774;52.256;9.356;2023-02-22T09:11:19;37.27;;;15.90;;
40072;SDS011;25774;52.256;9.356;2023-02-22T09:13:44;36.70;;;14.97;;
40072;SDS011;25774;52.256;9.356;2023-02-22T09:16:10;37.27;;;14.90;;
40072;SDS011;25774;52.256;9.356;2023-02-22T09:18:35;38.00;;;16.53;;
40072;SDS011;25774;52.256;9.356;2023-02-22T09:21:01;38.10;;;16.60;;
40072;SDS011;25774;52.256;9.356;2023-02-22T09:23:27;33.58;;;14.23;;
40072;SDS011;25774;52.256;9.356;2023-02-22T09:25:52;35.37;;;15.40;;
40072;SDS011;25774;52.256;9.356;2023-02-22T09:28:18;34.27;;;15.03;;
40072;SDS011;25774;52.256;9.356;2023-02-22T09:30:43;32.07;;;15.33;;
40072;SDS011;25774;52.256;9.356;2023-02-22T09:35:35;36.25;;;14.85;;
40072;SDS011;25774;52.256;9.356;2023-02-22T09:38:10;30.40;;;14.98;;
40072;SDS011;25774;52.256;9.356;2023-02-22T09:40:39;36.08;;;15.63;;
40072;SDS011;25774;52.256;9.356;2023-02-22T09:48:57;38.45;;;17.10;;
40072;SDS011;25774;52.256;9.356;2023-02-22T09:51:24;36.08;;;17.10;;
40072;SDS011;25774;52.256;9.356;2023-02-22T09:54:03;39.65;;;15.57;;
40072;SDS011;25774;52.256;9.356;2023-02-22T09:56:38;31.30;;;16.00;;
40072;SDS011;25774;52.256;9.356;2023-02-22T09:59:06;37.75;;;15.73;;
40072;SDS011;25774;52.256;9.356;2023-02-22T10:01:44;31.60;;;15.73;;
40072;SDS011;25774;52.256;9.356;2023-02-22T10:09:36;31.05;;;15.20;;
40072;SDS011;25774;52.256;9.356;2023-02-22T10:14:58;30.95;;;16.42;;
40072;SDS011;25774;52.256;9.356;2023-02-22T10:17:58;33.75;;;16.13;;
40072;SDS011;25774;52.256;9.356;2023-02-22T10:23:34;33.47;;;16.55;;
40072;SDS011;25774;52.256;9.356;2023-02-22T10:26:11;32.80;;;14.50;;
40072;SDS011;25774;52.256;9.356;2023-02-22T10:28:49;29.67;;;14.88;;
40072;SDS011;25774;52.256;9.356;2023-02-22T10:31:24;31.40;;;15.10;;
40072;SDS011;25774;52.256;9.356;2023-02-22T10:33:55;25.08;;;13.52;;
40072;SDS011;25774;52.256;9.356;2023-02-22T10:36:24;28.98;;;14.07;;
40072;SDS011;25774;52.256;9.356;2023-02-22T10:38:58;25.85;;;14.02;;
40072;SDS011;25774;52.256;9.356;2023-02-22T10:41:35;32.50;;;15.15;;
40072;SDS011;25774;52.256;9.356;2023-02-22T10:44:05;31.52;;;15.00;;
40072;SDS011;25774;52.256;9.356;2023-02-22T10:49:02;25.90;;;12.90;;
40072;SDS011;25774;52.256;9.356;2023-02-22T10:51:32;27.55;;;12.88;;
40072;SDS011;25774;52.256;9.356;2023-02-22T10:54:17;27.83;;;14.00;;
40072;SDS011;25774;52.256;9.356;2023-02-22T10:56:56;28.65;;;12.55;;
40072;SDS011;25774;52.256;9.356;2023-02-22T10:59:40;26.40;;;13.18;;
40072;SDS011;25774;52.256;9.356;2023-02-22T11:02:07;28.92;;;13.73;;
40072;SDS011;25774;52.256;9.356;2023-02-22T11:04:52;24.65;;;12.30;;
40072;SDS011;25774;52.256;9.356;2023-02-22T11:07:24;28.73;;;11.73;;
40072;SDS011;25774;52.256;9.356;2023-02-22T11:09:56;23.45;;;12.02;;
40072;SDS011;25774;52.256;9.356;2023-02-22T11:12:31;30.73;;;13.55;;
40072;SDS011;25774;52.256;9.356;2023-02-22T11:17:51;26.77;;;11.77;;
40072;SDS011;25774;52.256;9.356;2023-02-22T11:20:20;24.65;;;11.75;;
40072;SDS011;25774;52.256;9.356;2023-02-22T11:22:51;21.92;;;12.10;;
40072;SDS011;25774;52.256;9.356;2023-02-22T11:25:23;23.20;;;10.77;;
40072;SDS011;25774;52.256;9.356;2023-02-22T11:27:52;25.98;;;12.90;;
40072;SDS011;25774;52.256;9.356;2023-02-22T11:41:14;22.00;;;10.60;;
40072;SDS011;25774;52.256;9.356;2023-02-22T11:43:49;23.58;;;11.48;;
40072;SDS011;25774;52.256;9.356;2023-02-22T11:48:54;23.10;;;12.10;;
40072;SDS011;25774;52.256;9.356;2023-02-22T11:51:38;20.15;;;10.52;;
40072;SDS011;25774;52.256;9.356;2023-02-22T11:54:24;20.98;;;11.10;;
40072;SDS011;25774;52.256;9.356;2023-02-22T11:59:52;23.25;;;10.07;;
40072;SDS011;25774;52.256;9.356;2023-02-22T12:02:46;22.40;;;9.65;;
40072;SDS011;25774;52.256;9.356;2023-02-22T12:16:42;21.02;;;9.35;;
40072;SDS011;25774;52.256;9.356;2023-02-22T12:19:22;21.15;;;9.88;;
40072;SDS011;25774;52.256;9.356;2023-02-22T12:22:31;18.23;;;9.45;;
40072;SDS011;25774;52.256;9.356;2023-02-22T12:25:01;18.55;;;9.68;;
40072;SDS011;25774;52.256;9.356;2023-02-22T12:27:40;22.30;;;10.13;;
40072;SDS011;25774;52.256;9.356;2023-02-22T12:32:38;15.82;;;8.82;;
40072;SDS011;25774;52.256;9.356;2023-02-22T12:43:38;18.30;;;9.68;;
40072;SDS011;25774;52.256;9.356;2023-02-22T12:49:03;16.85;;;8.25;;
40072;SDS011;25774;52.256;9.356;2023-02-22T12:51:42;18.20;;;8.63;;
40072;SDS011;25774;52.256;9.356;2023-02-22T12:54:15;17.40;;;8.90;;
40072;SDS011;25774;52.256;9.356;2023-02-22T12:56:52;16.17;;;7.78;;
40072;SDS011;25774;52.256;9.356;2023-02-22T13:02:27;17.88;;;8.35;;
40072;SDS011;25774;52.256;9.356;2023-02-22T13:05:00;18.48;;;8.02;;
40072;SDS011;25774;52.256;9.356;2023-02-22T13:13:13;16.85;;;7.45;;
40072;SDS011;25774;52.256;9.356;2023-02-22T13:15:50;13.40;;;7.00;;
40072;SDS011;25774;52.256;9.356;2023-02-22T13:18:35;16.83;;;7.30;;
40072;SDS011;25774;52.256;9.356;2023-02-22T13:21:21;14.20;;;7.50;;
40072;SDS011;25774;52.256;9.356;2023-02-22T13:31:53;16.13;;;7.00;;
40072;SDS011;25774;52.256;9.356;2023-02-22T13:34:38;12.68;;;6.22;;
40072;SDS011;25774;52.256;9.356;2023-02-22T13:37:19;12.52;;;6.13;;
40072;SDS011;25774;52.256;9.356;2023-02-22T13:43:05;11.68;;;4.95;;
40072;SDS011;25774;52.256;9.356;2023-02-22T13:48:39;10.77;;;4.35;;
40072;SDS011;25774;52.256;9.356;2023-02-22T13:54:05;10.80;;;4.72;;
40072;SDS011;25774;52.256;9.356;2023-02-22T13:56:33;10.15;;;4.65;;
40072;SDS011;25774;52.256;9.356;2023-02-22T13:59:00;10.70;;;5.17;;
40072;SDS011;25774;52.256;9.356;2023-02-22T14:06:49;7.47;;;3.90;;
40072;SDS011;25774;52.256;9.356;2023-02-22T14:09:16;9.50;;;4.30;;
40072;SDS011;25774;52.256;9.356;2023-02-22T14:12:01;8.13;;;4.25;;
40072;SDS011;25774;52.256;9.356;2023-02-22T14:14:26;7.23;;;3.83;;
40072;SDS011;25774;52.256;9.356;2023-02-22T14:19:41;8.25;;;3.95;;
40072;SDS011;25774;52.256;9.356;2023-02-22T14:22:07;8.50;;;4.10;;
40072;SDS011;25774;52.256;9.356;2023-02-22T14:24:44;9.05;;;3.67;;
40072;SDS011;25774;52.256;9.356;2023-02-22T14:27:12;9.82;;;4.00;;
40072;SDS011;25774;52.256;9.356;2023-02-22T14:29:56;7.82;;;3.92;;
40072;SDS011;25774;52.256;9.356;2023-02-22T14:32:34;8.32;;;3.75;;
40072;SDS011;25774;52.256;9.356;2023-02-22T14:34:59;7.85;;;3.53;;
40072;SDS011;25774;52.256;9.356;2023-02-22T14:37:32;7.10;;;3.17;;
40072;SDS011;25774;52.256;9.356;2023-02-22T14:40:06;9.02;;;3.22;;
40072;SDS011;25774;52.256;9.356;2023-02-22T14:42:44;10.85;;;3.50;;
40072;SDS011;25774;52.256;9.356;2023-02-22T14:45:28;7.78;;;3.60;;
40072;SDS011;25774;52.256;9.356;2023-02-22T14:51:14;9.10;;;3.83;;
40072;SDS011;25774;52.256;9.356;2023-02-22T14:53:44;8.93;;;3.05;;
40072;SDS011;25774;52.256;9.356;2023-02-22T14:59:17;8.32;;;3.58;;
40072;SDS011;25774;52.256;9.356;2023-02-22T15:01:45;7.13;;;3.13;;
40072;SDS011;25774;52.256;9.356;2023-02-22T15:04:28;9.57;;;3.50;;
40072;SDS011;25774;52.256;9.356;2023-02-22T15:06:55;7.78;;;3.85;;
40072;SDS011;25774;52.256;9.356;2023-02-22T15:09:23;6.45;;;3.50;;
40072;SDS011;25774;52.256;9.356;2023-02-22T15:14:28;6.07;;;3.40;;
40072;SDS011;25774;52.256;9.356;2023-02-22T15:16:59;7.57;;;2.78;;
40072;SDS011;25774;52.256;9.356;2023-02-22T15:19:31;7.05;;;2.70;;
40072;SDS011;25774;52.256;9.356;2023-02-22T15:22:00;5.88;;;2.83;;
40072;SDS011;25774;52.256;9.356;2023-02-22T15:26:54;5.88;;;2.25;;
40072;SDS011;25774;52.256;9.356;2023-02-22T15:29:36;5.78;;;2.70;;
40072;SDS011;25774;52.256;9.356;2023-02-22T15:32:19;4.70;;;2.35;;
40072;SDS011;25774;52.256;9.356;2023-02-22T15:34:54;7.45;;;2.67;;
40072;SDS011;25774;52.256;9.356;2023-02-22T15:37:23;8.05;;;3.15;;
40072;SDS011;25774;52.256;9.356;2023-02-22T15:39:49;5.57;;;2.90;;
40072;SDS011;25774;52.256;9.356;2023-02-22T15:42:23;8.00;;;3.00;;
40072;SDS011;25774;52.256;9.356;2023-02-22T15:44:50;5.90;;;3.10;;
40072;SDS011;25774;52.256;9.356;2023-02-22T15:52:55;6.40;;;2.72;;
40072;SDS011;25774;52.256;9.356;2023-02-22T15:55:26;6.35;;;3.08;;
40072;SDS011;25774;52.256;9.356;2023-02-22T15:58:06;5.13;;;2.90;;
40072;SDS011;25774;52.256;9.356;2023-02-22T16:03:04;8.20;;;2.70;;
40072;SDS011;25774;52.256;9.356;2023-02-22T16:05:36;7.70;;;3.05;;
40072;SDS011;25774;52.256;9.356;2023-02-22T16:08:08;5.90;;;2.83;;
40072;SDS011;25774;52.256;9.356;2023-02-22T16:10:39;7.35;;;3.03;;
40072;SDS011;25774;52.256;9.356;2023-02-22T16:13:21;6.80;;;3.05;;
40072;SDS011;25774;52.256;9.356;2023-02-22T16:16:02;5.88;;;2.70;;
40072;SDS011;25774;52.256;9.356;2023-02-22T16:18:36;6.60;;;3.17;;
40072;SDS011;25774;52.256;9.356;2023-02-22T16:21:04;8.38;;;2.90;;
40072;SDS011;25774;52.256;9.356;2023-02-22T16:23:41;8.82;;;3.20;;
40072;SDS011;25774;52.256;9.356;2023-02-22T16:28:48;6.13;;;2.65;;
40072;SDS011;25774;52.256;9.356;2023-02-22T16:31:16;10.63;;;3.42;;
40072;SDS011;25774;52.256;9.356;2023-02-22T16:33:44;9.00;;;4.05;;
40072;SDS011;25774;52.256;9.356;2023-02-22T16:36:09;13.83;;;4.70;;
40072;SDS011;25774;52.256;9.356;2023-02-22T16:38:35;10.27;;;4.00;;
40072;SDS011;25774;52.256;9.356;2023-02-22T16:41:02;7.90;;;3.60;;
40072;SDS011;25774;52.256;9.356;2023-02-22T16:43:30;9.52;;;3.90;;
40072;SDS011;25774;52.256;9.356;2023-02-22T16:46:00;9.63;;;4.35;;
40072;SDS011;25774;52.256;9.356;2023-02-22T16:48:27;11.25;;;4.30;;
40072;SDS011;25774;52.256;9.356;2023-02-22T16:50:55;13.75;;;4.40;;
40072;SDS011;25774;52.256;9.356;2023-02-22T16:53:25;9.35;;;5.07;;
40072;SDS011;25774;52.256;9.356;2023-02-22T16:55:53;6.97;;;3.50;;
40072;SDS011;25774;52.256;9.356;2023-02-22T16:58:22;14.15;;;4.25;;
40072;SDS011;25774;52.256;9.356;2023-02-22T17:00:52;11.40;;;4.10;;
40072;SDS011;25774;52.256;9.356;2023-02-22T17:05:44;25.60;;;9.73;;
40072;SDS011;25774;52.256;9.356;2023-02-22T17:08:09;21.63;;;8.93;;
40072;SDS011;25774;52.256;9.356;2023-02-22T17:10:35;28.20;;;10.23;;
40072;SDS011;25774;52.256;9.356;2023-02-22T17:13:00;22.33;;;8.17;;
40072;SDS011;25774;52.256;9.356;2023-02-22T17:15:30;19.75;;;7.88;;
40072;SDS011;25774;52.256;9.356;2023-02-22T17:17:57;16.30;;;4.82;;
40072;SDS011;25774;52.256;9.356;2023-02-22T17:20:23;13.50;;;4.68;;
40072;SDS011;25774;52.256;9.356;2023-02-22T17:22:56;19.15;;;7.28;;
40072;SDS011;25774;52.256;9.356;2023-02-22T17:25:25;11.38;;;4.97;;
40072;SDS011;25774;52.256;9.356;2023-02-22T17:27:53;12.25;;;4.13;;